sensor_id;sensor_type;location;lat;lon;timestamp;pressure;altitude;pressure_sealevel;temperature;humidity
68193;BME280;55012;47.562;18.414;2024-02-16T00:00:46;100534.41;;;6.45;100.00
68193;BME280;55012;47.562;18.414;2024-02-16T00:03:12;100546.22;;;6.44;100.00
68193;BME280;55012;47.562;18.414;2024-02-16T00:05:37;100547.63;;;6.41;100.00
68193;BME280;55012;47.562;18.414;2024-02-16T00:08:03;100552.47;;;6.39;100.00
68193;BME280;55012;47.562;18.414;2024-02-16T00:10:29;100566.44;;;6.41;100.00
68193;BME280;55012;47.562;18.414;2024-02-16T00:12:54;100562.94;;;6.41;100.00
68193;BME280;55012;47.562;18.414;2024-02-16T00:15:20;100575.56;;;6.40;100.00
68193;BME280;55012;47.562;18.414;2024-02-16T00:17:45;100578.56;;;6.39;100.00
68193;BME280;55012;47.562;18.414;2024-02-16T00:20:10;100578.56;;;6.39;100.00
68193;BME280;55012;47.562;18.414;2024-02-16T00:22:38;100589.59;;;6.37;100.00
68193;BME280;55012;47.562;18.414;2024-02-16T00:25:03;100597.13;;;6.35;100.00
68193;BME280;55012;47.562;18.414;2024-02-16T00:27:29;100596.31;;;6.35;100.00
68193;BME280;55012;47.562;18.414;2024-02-16T00:29:55;100596.38;;;6.30;100.00
68193;BME280;55012;47.562;18.414;2024-02-16T00:32:20;100595.03;;;6.27;100.00
68193;BME280;55012;47.562;18.414;2024-02-16T00:34:45;100599.31;;;6.28;100.00
68193;BME280;55012;47.562;18.414;2024-02-16T00:37:11;100602.59;;;6.25;100.00
68193;BME280;55012;47.562;18.414;2024-02-16T00:39:40;100608.81;;;6.20;100.00
68193;BME280;55012;47.562;18.414;2024-02-16T00:42:06;100610.16;;;6.18;100.00
68193;BME280;55012;47.562;18.414;2024-02-16T00:44:31;100620.41;;;6.16;100.00
68193;BME280;55012;47.562;18.414;2024-02-16T00:46:57;100629.84;;;6.13;100.00
68193;BME280;55012;47.562;18.414;2024-02-16T00:49:22;100624.50;;;6.08;100.00
68193;BME280;55012;47.562;18.414;2024-02-16T00:51:47;100634.16;;;6.09;100.00
68193;BME280;55012;47.562;18.414;2024-02-16T00:54:13;100644.09;;;6.09;100.00
68193;BME280;55012;47.562;18.414;2024-02-16T00:56:38;100641.44;;;6.04;100.00
68193;BME280;55012;47.562;18.414;2024-02-16T00:59:04;100644.13;;;6.04;100.00
68193;BME280;55012;47.562;18.414;2024-02-16T01:01:30;100647.09;;;6.02;100.00
68193;BME280;55012;47.562;18.414;2024-02-16T01:03:55;100641.50;;;5.99;100.00
68193;BME280;55012;47.562;18.414;2024-02-16T01:06:21;100645.28;;;5.98;100.00
68193;BME280;55012;47.562;18.414;2024-02-16T01:08:46;100651.19;;;5.95;100.00
68193;BME280;55012;47.562;18.414;2024-02-16T01:11:12;100649.06;;;5.91;100.00
68193;BME280;55012;47.562;18.414;2024-02-16T01:13:39;100657.38;;;5.90;100.00
68193;BME280;55012;47.562;18.414;2024-02-16T01:16:04;100662.22;;;5.88;100.00
68193;BME280;55012;47.562;18.414;2024-02-16T01:18:30;100672.44;;;5.86;100.00
68193;BME280;55012;47.562;18.414;2024-02-16T01:20:57;100666.81;;;5.82;100.00
68193;BME280;55012;47.562;18.414;2024-02-16T01:23:23;100675.16;;;5.81;100.00
68193;BME280;55012;47.562;18.414;2024-02-16T01:25:49;100670.59;;;5.76;100.00
68193;BME280;55012;47.562;18.414;2024-02-16T01:28:14;100677.34;;;5.74;100.00
68193;BME280;55012;47.562;18.414;2024-02-16T01:30:40;100678.44;;;5.73;100.00
68193;BME280;55012;47.562;18.414;2024-02-16T01:33:06;100680.84;;;5.69;100.00
68193;BME280;55012;47.562;18.414;2024-02-16T01:35:35;100687.56;;;5.67;100.00
68193;BME280;55012;47.562;18.414;2024-02-16T01:38:00;100688.13;;;5.63;100.00
68193;BME280;55012;47.562;18.414;2024-02-16T01:40:28;100679.53;;;5.61;100.00
68193;BME280;55012;47.562;18.414;2024-02-16T01:42:54;100690.03;;;5.58;100.00
68193;BME280;55012;47.562;18.414;2024-02-16T01:45:20;100690.84;;;5.53;100.00
68193;BME280;55012;47.562;18.414;2024-02-16T01:47:48;100685.25;;;5.50;100.00
68193;BME280;55012;47.562;18.414;2024-02-16T01:50:15;100688.72;;;5.45;100.00
68193;BME280;55012;47.562;18.414;2024-02-16T01:52:47;100680.97;;;5.44;100.00
68193;BME280;55012;47.562;18.414;2024-02-16T01:55:13;100684.22;;;5.41;100.00
68193;BME280;55012;47.562;18.414;2024-02-16T01:57:40;100688.78;;;5.40;100.00
68193;BME280;55012;47.562;18.414;2024-02-16T02:00:08;100700.03;;;5.37;100.00
68193;BME280;55012;47.562;18.414;2024-02-16T02:02:34;100705.97;;;5.34;100.00
68193;BME280;55012;47.562;18.414;2024-02-16T02:05:00;100700.06;;;5.32;100.00
68193;BME280;55012;47.562;18.414;2024-02-16T02:07:26;100705.72;;;5.30;100.00
68193;BME280;55012;47.562;18.414;2024-02-16T02:09:52;100701.97;;;5.26;100.00
68193;BME280;55012;47.562;18.414;2024-02-16T02:12:18;100704.94;;;5.25;100.00
68193;BME280;55012;47.562;18.414;2024-02-16T02:14:43;100712.16;;;5.24;100.00
68193;BME280;55012;47.562;18.414;2024-02-16T02:17:09;100710.03;;;5.21;100.00
68193;BME280;55012;47.562;18.414;2024-02-16T02:19:34;100715.41;;;5.21;100.00
68193;BME280;55012;47.562;18.414;2024-02-16T02:22:00;100707.88;;;5.18;100.00
68193;BME280;55012;47.562;18.414;2024-02-16T02:24:26;100710.56;;;5.18;100.00
68193;BME280;55012;47.562;18.414;2024-02-16T02:26:51;100710.84;;;5.17;100.00
68193;BME280;55012;47.562;18.414;2024-02-16T02:29:17;100714.34;;;5.12;100.00
68193;BME280;55012;47.562;18.414;2024-02-16T02:31:42;100718.91;;;5.12;100.00
68193;BME280;55012;47.562;18.414;2024-02-16T02:34:07;100713.56;;;5.06;100.00
68193;BME280;55012;47.562;18.414;2024-02-16T02:36:33;100724.81;;;5.08;100.00
68193;BME280;55012;47.562;18.414;2024-02-16T02:38:58;100715.44;;;5.01;100.00
68193;BME280;55012;47.562;18.414;2024-02-16T02:41:24;100724.81;;;5.03;100.00
68193;BME280;55012;47.562;18.414;2024-02-16T02:43:50;100723.22;;;5.02;100.00
68193;BME280;55012;47.562;18.414;2024-02-16T02:46:16;100721.59;;;5.01;100.00
68193;BME280;55012;47.562;18.414;2024-02-16T02:48:45;100721.59;;;5.01;100.00
68193;BME280;55012;47.562;18.414;2024-02-16T02:51:11;100722.69;;;5.00;100.00
68193;BME280;55012;47.562;18.414;2024-02-16T02:53:37;100727.53;;;4.98;100.00
68193;BME280;55012;47.562;18.414;2024-02-16T02:56:03;100722.69;;;4.95;100.00
68193;BME280;55012;47.562;18.414;2024-02-16T02:58:28;100733.69;;;4.94;100.00
68193;BME280;55012;47.562;18.414;2024-02-16T03:00:54;100723.00;;;4.89;100.00
68193;BME280;55012;47.562;18.414;2024-02-16T03:03:20;100732.91;;;4.88;100.00
68193;BME280;55012;47.562;18.414;2024-02-16T03:05:46;100728.34;;;4.84;100.00
68193;BME280;55012;47.562;18.414;2024-02-16T03:08:12;100732.91;;;4.83;100.00
68193;BME280;55012;47.562;18.414;2024-02-16T03:10:37;100733.72;;;4.84;100.00
68193;BME280;55012;47.562;18.414;2024-02-16T03:13:03;100730.50;;;4.82;100.00
68193;BME280;55012;47.562;18.414;2024-02-16T03:15:29;100728.34;;;4.78;100.00
68193;BME280;55012;47.562;18.414;2024-02-16T03:17:55;100728.63;;;4.77;100.00
68193;BME280;55012;47.562;18.414;2024-02-16T03:20:20;100722.72;;;4.75;100.00
68193;BME280;55012;47.562;18.414;2024-02-16T03:22:46;100725.41;;;4.75;100.00
68193;BME280;55012;47.562;18.414;2024-02-16T03:25:12;100719.22;;;4.69;100.00
68193;BME280;55012;47.562;18.414;2024-02-16T03:27:37;100730.47;;;4.71;100.00
68193;BME280;55012;47.562;18.414;2024-02-16T03:30:03;100731.56;;;4.70;100.00
68193;BME280;55012;47.562;18.414;2024-02-16T03:32:30;100739.34;;;4.67;100.00
68193;BME280;55012;47.562;18.414;2024-02-16T03:34:59;100733.97;;;4.67;100.00
68193;BME280;55012;47.562;18.414;2024-02-16T03:37:25;100742.31;;;4.65;100.00
68193;BME280;55012;47.562;18.414;2024-02-16T03:39:50;100742.56;;;4.64;100.00
68193;BME280;55012;47.562;18.414;2024-02-16T03:42:16;100740.41;;;4.61;100.00
68193;BME280;55012;47.562;18.414;2024-02-16T03:44:43;100751.94;;;4.61;100.00
68193;BME280;55012;47.562;18.414;2024-02-16T03:47:09;100743.38;;;4.59;100.00
68193;BME280;55012;47.562;18.414;2024-02-16T03:49:34;100743.63;;;4.58;100.00
68193;BME280;55012;47.562;18.414;2024-02-16T03:52:00;100750.06;;;4.57;100.00
68193;BME280;55012;47.562;18.414;2024-02-16T03:54:25;100749.28;;;4.56;100.00
68193;BME280;55012;47.562;18.414;2024-02-16T03:56:54;100743.63;;;4.53;100.00
68193;BME280;55012;47.562;18.414;2024-02-16T03:59:21;100743.09;;;4.50;100.00
68193;BME280;55012;47.562;18.414;2024-02-16T04:01:46;100749.53;;;4.49;100.00
68193;BME280;55012;47.562;18.414;2024-02-16T04:04:12;100758.34;;;4.45;100.00
68193;BME280;55012;47.562;18.414;2024-02-16T04:06:38;100755.94;;;4.43;100.00
68193;BME280;55012;47.562;18.414;2024-02-16T04:09:04;100762.66;;;4.41;100.00
68193;BME280;55012;47.562;18.414;2024-02-16T04:11:31;100759.97;;;4.41;100.00
68193;BME280;55012;47.562;18.414;2024-02-16T04:13:57;100771.75;;;4.40;100.00
68193;BME280;55012;47.562;18.414;2024-02-16T04:16:22;100767.72;;;4.37;100.00
68193;BME280;55012;47.562;18.414;2024-02-16T04:18:50;100765.59;;;4.34;100.00
68193;BME280;55012;47.562;18.414;2024-02-16T04:21:15;100767.72;;;4.32;100.00
68193;BME280;55012;47.562;18.414;2024-02-16T04:23:41;100773.59;;;4.29;100.00
68193;BME280;55012;47.562;18.414;2024-02-16T04:26:06;100775.19;;;4.30;100.00
68193;BME280;55012;47.562;18.414;2024-02-16T04:28:32;100779.75;;;4.30;100.00
68193;BME280;55012;47.562;18.414;2024-02-16T04:30:57;100765.28;;;4.20;100.00
68193;BME280;55012;47.562;18.414;2024-02-16T04:33:22;100778.97;;;4.29;100.00
68193;BME280;55012;47.562;18.414;2024-02-16T04:35:48;100779.22;;;4.28;100.00
68193;BME280;55012;47.562;18.414;2024-02-16T04:38:15;100776.28;;;4.29;100.00
68193;BME280;55012;47.562;18.414;2024-02-16T04:40:41;100778.97;;;4.29;100.00
68193;BME280;55012;47.562;18.414;2024-02-16T04:43:06;100780.56;;;4.30;100.00
68193;BME280;55012;47.562;18.414;2024-02-16T04:45:31;100783.81;;;4.32;100.00
68193;BME280;55012;47.562;18.414;2024-02-16T04:47:57;100783.81;;;4.32;100.00
68193;BME280;55012;47.562;18.414;2024-02-16T04:50:22;100783.00;;;4.32;100.00
68193;BME280;55012;47.562;18.414;2024-02-16T04:52:47;100779.50;;;4.26;100.00
68193;BME280;55012;47.562;18.414;2024-02-16T04:55:13;100776.56;;;4.28;100.00
68193;BME280;55012;47.562;18.414;2024-02-16T04:57:38;100779.78;;;4.25;100.00
68193;BME280;55012;47.562;18.414;2024-02-16T05:00:04;100775.50;;;4.23;100.00
68193;BME280;55012;47.562;18.414;2024-02-16T05:02:30;100779.78;;;4.25;100.00
68193;BME280;55012;47.562;18.414;2024-02-16T05:04:55;100770.13;;;4.23;100.00
68193;BME280;55012;47.562;18.414;2024-02-16T05:07:20;100769.56;;;4.21;100.00
68193;BME280;55012;47.562;18.414;2024-02-16T05:09:46;100777.59;;;4.21;100.00
68193;BME280;55012;47.562;18.414;2024-02-16T05:12:11;100775.19;;;4.20;100.00
68193;BME280;55012;47.562;18.414;2024-02-16T05:14:36;100778.13;;;4.18;100.00
68193;BME280;55012;47.562;18.414;2024-02-16T05:17:02;100775.47;;;4.18;100.00
68193;BME280;55012;47.562;18.414;2024-02-16T05:19:32;100778.13;;;4.18;100.00
68193;BME280;55012;47.562;18.414;2024-02-16T05:21:57;100781.63;;;4.19;100.00
68193;BME280;55012;47.562;18.414;2024-02-16T05:24:22;100793.13;;;4.19;100.00
68193;BME280;55012;47.562;18.414;2024-02-16T05:26:48;100785.38;;;4.18;100.00
68193;BME280;55012;47.562;18.414;2024-02-16T05:29:13;100784.53;;;4.12;100.00
68193;BME280;55012;47.562;18.414;2024-02-16T05:31:39;100780.53;;;4.10;100.00
68193;BME280;55012;47.562;18.414;2024-02-16T05:34:04;100774.91;;;4.06;100.00
68193;BME280;55012;47.562;18.414;2024-02-16T05:36:29;100781.56;;;4.04;100.00
68193;BME280;55012;47.562;18.414;2024-02-16T05:38:55;100782.13;;;4.01;100.00
68193;BME280;55012;47.562;18.414;2024-02-16T05:41:21;100776.47;;;3.97;100.00
68193;BME280;55012;47.562;18.414;2024-02-16T05:43:47;100777.53;;;3.96;100.00
68193;BME280;55012;47.562;18.414;2024-02-16T05:46:14;100773.53;;;3.93;100.00
68193;BME280;55012;47.562;18.414;2024-02-16T05:48:40;100785.84;;;3.94;100.00
68193;BME280;55012;47.562;18.414;2024-02-16T05:51:06;100787.44;;;3.95;100.00
68193;BME280;55012;47.562;18.414;2024-02-16T05:53:32;100786.63;;;3.95;100.00
68193;BME280;55012;47.562;18.414;2024-02-16T05:55:58;100796.56;;;4.00;100.00
68193;BME280;55012;47.562;18.414;2024-02-16T05:58:24;100796.56;;;4.00;100.00
68193;BME280;55012;47.562;18.414;2024-02-16T06:00:50;100793.09;;;3.99;100.00
68193;BME280;55012;47.562;18.414;2024-02-16T06:03:15;100800.06;;;4.00;100.00
68193;BME280;55012;47.562;18.414;2024-02-16T06:05:41;100797.91;;;4.02;100.00
68193;BME280;55012;47.562;18.414;2024-02-16T06:08:10;100798.97;;;4.01;100.00
68193;BME280;55012;47.562;18.414;2024-02-16T06:10:35;100804.06;;;4.03;100.00
68193;BME280;55012;47.562;18.414;2024-02-16T06:13:00;100811.28;;;4.02;100.00
68193;BME280;55012;47.562;18.414;2024-02-16T06:15:26;100807.56;;;4.03;100.00
68193;BME280;55012;47.562;18.414;2024-02-16T06:17:51;100810.75;;;4.05;100.00
68193;BME280;55012;47.562;18.414;2024-02-16T06:20:17;100808.66;;;4.07;100.00
68193;BME280;55012;47.562;18.414;2024-02-16T06:22:43;100810.25;;;4.08;100.00
68193;BME280;55012;47.562;18.414;2024-02-16T06:25:09;100808.38;;;4.09;100.00
68193;BME280;55012;47.562;18.414;2024-02-16T06:27:35;100815.59;;;4.13;100.00
68193;BME280;55012;47.562;18.414;2024-02-16T06:30:02;100814.81;;;4.13;100.00
68193;BME280;55012;47.562;18.414;2024-02-16T06:32:29;100826.63;;;4.17;100.00
68193;BME280;55012;47.562;18.414;2024-02-16T06:34:55;100829.03;;;4.18;100.00
68193;BME280;55012;47.562;18.414;2024-02-16T06:37:21;100835.50;;;4.22;100.00
68193;BME280;55012;47.562;18.414;2024-02-16T06:39:46;100832.81;;;4.22;100.00
68193;BME280;55012;47.562;18.414;2024-02-16T06:42:11;100826.66;;;4.27;100.00
68193;BME280;55012;47.562;18.414;2024-02-16T06:44:38;100834.13;;;4.30;100.00
68193;BME280;55012;47.562;18.414;2024-02-16T06:47:04;100843.81;;;4.31;100.00
68193;BME280;55012;47.562;18.414;2024-02-16T06:49:30;100842.47;;;4.34;100.00
68193;BME280;55012;47.562;18.414;2024-02-16T06:51:55;100842.50;;;4.39;100.00
68193;BME280;55012;47.562;18.414;2024-02-16T06:54:21;100843.28;;;4.44;100.00
68193;BME280;55012;47.562;18.414;2024-02-16T06:56:46;100849.75;;;4.48;100.00
68193;BME280;55012;47.562;18.414;2024-02-16T06:59:11;100840.38;;;4.51;100.00
68193;BME280;55012;47.562;18.414;2024-02-16T07:01:37;100833.97;;;4.57;100.00
68193;BME280;55012;47.562;18.414;2024-02-16T07:04:02;100840.13;;;4.63;100.00
68193;BME280;55012;47.562;18.414;2024-02-16T07:06:28;100836.66;;;4.67;100.00
68193;BME280;55012;47.562;18.414;2024-02-16T07:08:53;100836.91;;;4.71;100.00
68193;BME280;55012;47.562;18.414;2024-02-16T07:11:19;100828.88;;;4.76;100.00
68193;BME280;55012;47.562;18.414;2024-02-16T07:13:46;100836.13;;;4.81;100.00
68193;BME280;55012;47.562;18.414;2024-02-16T07:16:11;100828.34;;;4.84;100.00
68193;BME280;55012;47.562;18.414;2024-02-16T07:18:37;100818.44;;;4.90;100.00
68193;BME280;55012;47.562;18.414;2024-02-16T07:21:02;100819.22;;;4.95;100.00
68193;BME280;55012;47.562;18.414;2024-02-16T07:23:28;100821.91;;;4.95;100.00
68193;BME280;55012;47.562;18.414;2024-02-16T07:25:54;100818.41;;;4.95;100.00
68193;BME280;55012;47.562;18.414;2024-02-16T07:28:24;100810.09;;;4.96;100.00
68193;BME280;55012;47.562;18.414;2024-02-16T07:30:50;100821.66;;;5.02;100.00
68193;BME280;55012;47.562;18.414;2024-02-16T07:33:16;100813.59;;;5.07;100.00
68193;BME280;55012;47.562;18.414;2024-02-16T07:35:42;100811.97;;;5.11;100.00
68193;BME280;55012;47.562;18.414;2024-02-16T07:38:07;100819.75;;;5.18;100.00
68193;BME280;55012;47.562;18.414;2024-02-16T07:40:33;100815.47;;;5.22;100.00
68193;BME280;55012;47.562;18.414;2024-02-16T07:42:58;100813.28;;;5.29;100.00
68193;BME280;55012;47.562;18.414;2024-02-16T07:45:24;100813.56;;;5.32;100.00
68193;BME280;55012;47.562;18.414;2024-02-16T07:47:50;100804.69;;;5.37;100.00
68193;BME280;55012;47.562;18.414;2024-02-16T07:50:19;100806.56;;;5.42;100.00
68193;BME280;55012;47.562;18.414;2024-02-16T07:52:46;100805.47;;;5.53;100.00
68193;BME280;55012;47.562;18.414;2024-02-16T07:55:11;100798.22;;;5.58;100.00
68193;BME280;55012;47.562;18.414;2024-02-16T07:57:37;100798.22;;;5.63;100.00
68193;BME280;55012;47.562;18.414;2024-02-16T08:00:04;100785.56;;;5.69;100.00
68193;BME280;55012;47.562;18.414;2024-02-16T08:02:29;100784.97;;;5.77;100.00
68193;BME280;55012;47.562;18.414;2024-02-16T08:04:55;100778.53;;;5.83;100.00
68193;BME280;55012;47.562;18.414;2024-02-16T08:07:20;100773.41;;;5.92;100.00
68193;BME280;55012;47.562;18.414;2024-02-16T08:09:46;100769.63;;;5.98;100.00
68193;BME280;55012;47.562;18.414;2024-02-16T08:12:12;100767.75;;;5.99;100.00
68193;BME280;55012;47.562;18.414;2024-02-16T08:14:39;100758.31;;;6.01;100.00
68193;BME280;55012;47.562;18.414;2024-02-16T08:17:05;100754.53;;;6.07;100.00
68193;BME280;55012;47.562;18.414;2024-02-16T08:19:37;100753.16;;;6.15;100.00
68193;BME280;55012;47.562;18.414;2024-02-16T08:22:05;100739.94;;;6.18;100.00
68193;BME280;55012;47.562;18.414;2024-02-16T08:24:36;100739.94;;;6.24;100.00
68193;BME280;55012;47.562;18.414;2024-02-16T08:27:03;100734.25;;;6.30;100.00
68193;BME280;55012;47.562;18.414;2024-02-16T08:29:29;100726.13;;;6.35;100.00
68193;BME280;55012;47.562;18.414;2024-02-16T08:31:55;100705.41;;;6.41;100.00
68193;BME280;55012;47.562;18.414;2024-02-16T08:34:20;100699.75;;;6.42;100.00
68193;BME280;55012;47.562;18.414;2024-02-16T08:36:47;100691.34;;;6.49;100.00
68193;BME280;55012;47.562;18.414;2024-02-16T08:39:13;100687.28;;;6.52;100.00
68193;BME280;55012;47.562;18.414;2024-02-16T08:41:38;100679.47;;;6.55;100.00
68193;BME280;55012;47.562;18.414;2024-02-16T08:44:04;100676.44;;;6.62;100.00
68193;BME280;55012;47.562;18.414;2024-02-16T08:46:30;100675.59;;;6.66;100.00
68193;BME280;55012;47.562;18.414;2024-02-16T08:48:55;100676.38;;;6.72;100.00
68193;BME280;55012;47.562;18.414;2024-02-16T08:51:21;100668.53;;;6.75;100.00
68193;BME280;55012;47.562;18.414;2024-02-16T08:53:46;100671.69;;;6.83;100.00
68193;BME280;55012;47.562;18.414;2024-02-16T08:56:12;100666.25;;;6.88;100.00
68193;BME280;55012;47.562;18.414;2024-02-16T08:58:38;100666.47;;;6.91;100.00
68193;BME280;55012;47.562;18.414;2024-02-16T09:01:04;100665.34;;;6.97;100.00
68193;BME280;55012;47.562;18.414;2024-02-16T09:03:30;100665.56;;;7.01;100.00
68193;BME280;55012;47.562;18.414;2024-02-16T09:06:02;100661.75;;;7.07;100.00
68193;BME280;55012;47.562;18.414;2024-02-16T09:08:27;100665.69;;;7.15;100.00
68193;BME280;55012;47.562;18.414;2024-02-16T09:10:56;100671.84;;;7.20;100.00
68193;BME280;55012;47.562;18.414;2024-02-16T09:13:21;100664.19;;;7.27;100.00
68193;BME280;55012;47.562;18.414;2024-02-16T09:15:46;100661.66;;;7.36;100.00
68193;BME280;55012;47.562;18.414;2024-02-16T09:18:13;100660.00;;;7.40;100.00
68193;BME280;55012;47.562;18.414;2024-02-16T09:20:38;100656.38;;;7.50;100.00
68193;BME280;55012;47.562;18.414;2024-02-16T09:23:03;100650.94;;;7.55;100.00
68193;BME280;55012;47.562;18.414;2024-02-16T09:25:29;100639.28;;;7.59;100.00
68193;BME280;55012;47.562;18.414;2024-02-16T09:27:54;100635.94;;;7.68;100.00
68193;BME280;55012;47.562;18.414;2024-02-16T09:30:19;100628.88;;;7.72;100.00
68193;BME280;55012;47.562;18.414;2024-02-16T09:32:46;100630.03;;;7.84;100.00
68193;BME280;55012;47.562;18.414;2024-02-16T09:35:12;100629.38;;;7.93;100.00
68193;BME280;55012;47.562;18.414;2024-02-16T09:37:39;100629.81;;;8.00;100.00
68193;BME280;55012;47.562;18.414;2024-02-16T09:40:05;100619.16;;;8.08;100.00
68193;BME280;55012;47.562;18.414;2024-02-16T09:42:32;100605.31;;;8.15;100.00
68193;BME280;55012;47.562;18.414;2024-02-16T09:44:59;100595.44;;;8.24;100.00
68193;BME280;55012;47.562;18.414;2024-02-16T09:47:25;100576.19;;;8.31;100.00
68193;BME280;55012;47.562;18.414;2024-02-16T09:49:54;100570.66;;;8.41;100.00
68193;BME280;55012;47.562;18.414;2024-02-16T09:52:19;100553.28;;;8.47;100.00
68193;BME280;55012;47.562;18.414;2024-02-16T09:54:45;100533.81;;;8.50;100.00
68193;BME280;55012;47.562;18.414;2024-02-16T09:57:10;100511.53;;;8.58;100.00
68193;BME280;55012;47.562;18.414;2024-02-16T09:59:36;100493.34;;;8.64;100.00
68193;BME280;55012;47.562;18.414;2024-02-16T10:02:02;100474.38;;;8.69;100.00
68193;BME280;55012;47.562;18.414;2024-02-16T10:04:28;100451.25;;;8.77;100.00
68193;BME280;55012;47.562;18.414;2024-02-16T10:06:54;100431.16;;;8.83;100.00
68193;BME280;55012;47.562;18.414;2024-02-16T10:09:27;100407.25;;;8.90;100.00
68193;BME280;55012;47.562;18.414;2024-02-16T10:11:54;100383.97;;;8.94;100.00
68193;BME280;55012;47.562;18.414;2024-02-16T10:14:19;100356.06;;;8.98;100.00
68193;BME280;55012;47.562;18.414;2024-02-16T10:16:48;100335.47;;;9.03;100.00
68193;BME280;55012;47.562;18.414;2024-02-16T10:19:23;100306.09;;;9.10;100.00
68193;BME280;55012;47.562;18.414;2024-02-16T10:21:49;100277.41;;;9.14;100.00
68193;BME280;55012;47.562;18.414;2024-02-16T10:24:14;100269.47;;;9.17;100.00
68193;BME280;55012;47.562;18.414;2024-02-16T10:26:40;100266.53;;;9.27;100.00
68193;BME280;55012;47.562;18.414;2024-02-16T10:29:08;100238.09;;;9.30;100.00
68193;BME280;55012;47.562;18.414;2024-02-16T10:31:34;100218.56;;;9.33;100.00
68193;BME280;55012;47.562;18.414;2024-02-16T10:34:01;100193.34;;;9.38;100.00
68193;BME280;55012;47.562;18.414;2024-02-16T10:36:37;100168.06;;;9.42;100.00
68193;BME280;55012;47.562;18.414;2024-02-16T10:39:04;100136.47;;;9.43;100.00
68193;BME280;55012;47.562;18.414;2024-02-16T10:41:33;100107.88;;;9.42;100.00
68193;BME280;55012;47.562;18.414;2024-02-16T10:44:01;100098.50;;;9.48;100.00
68193;BME280;55012;47.562;18.414;2024-02-16T10:46:27;100085.47;;;9.50;100.00
68193;BME280;55012;47.562;18.414;2024-02-16T10:48:52;100059.75;;;9.52;100.00
68193;BME280;55012;47.562;18.414;2024-02-16T10:51:24;100044.50;;;9.56;100.00
68193;BME280;55012;47.562;18.414;2024-02-16T10:53:52;100017.50;;;9.56;100.00
68193;BME280;55012;47.562;18.414;2024-02-16T10:56:35;100001.75;;;9.58;100.00
68193;BME280;55012;47.562;18.414;2024-02-16T10:59:05;99981.44;;;9.61;100.00
68193;BME280;55012;47.562;18.414;2024-02-16T11:01:43;99973.00;;;9.63;100.00
68193;BME280;55012;47.562;18.414;2024-02-16T11:04:15;99975.22;;;9.69;100.00
68193;BME280;55012;47.562;18.414;2024-02-16T11:06:56;99957.25;;;9.73;100.00
68193;BME280;55012;47.562;18.414;2024-02-16T11:09:28;99945.19;;;9.71;100.00
68193;BME280;55012;47.562;18.414;2024-02-16T11:11:55;99931.47;;;9.76;100.00
68193;BME280;55012;47.562;18.414;2024-02-16T11:14:22;99903.38;;;9.77;100.00
68193;BME280;55012;47.562;18.414;2024-02-16T11:16:48;99896.50;;;9.79;100.00
68193;BME280;55012;47.562;18.414;2024-02-16T11:19:14;99884.25;;;9.82;100.00
68193;BME280;55012;47.562;18.414;2024-02-16T11:21:58;99870.56;;;9.87;100.00
68193;BME280;55012;47.562;18.414;2024-02-16T11:24:31;99854.50;;;9.91;100.00
68193;BME280;55012;47.562;18.414;2024-02-16T11:26:57;99840.81;;;9.96;100.00
68193;BME280;55012;47.562;18.414;2024-02-16T11:29:23;99836.47;;;10.03;100.00
68193;BME280;55012;47.562;18.414;2024-02-16T11:31:50;99833.56;;;10.08;100.00
68193;BME280;55012;47.562;18.414;2024-02-16T11:34:24;99814.00;;;10.11;100.00
68193;BME280;55012;47.562;18.414;2024-02-16T11:36:56;99795.56;;;10.13;100.00
68193;BME280;55012;47.562;18.414;2024-02-16T11:39:22;99788.69;;;10.16;100.00
68193;BME280;55012;47.562;18.414;2024-02-16T11:41:47;99791.53;;;10.20;100.00
68193;BME280;55012;47.562;18.414;2024-02-16T11:44:14;99786.28;;;10.23;100.00
68193;BME280;55012;47.562;18.414;2024-02-16T11:46:42;99784.03;;;10.25;100.00
68193;BME280;55012;47.562;18.414;2024-02-16T11:49:08;99765.28;;;10.20;100.00
68193;BME280;55012;47.562;18.414;2024-02-16T11:51:34;99766.88;;;10.21;100.00
68193;BME280;55012;47.562;18.414;2024-02-16T11:53:59;99754.97;;;10.22;100.00
68193;BME280;55012;47.562;18.414;2024-02-16T11:56:25;99751.00;;;10.20;100.00
68193;BME280;55012;47.562;18.414;2024-02-16T11:58:51;99755.41;;;10.24;100.00
68193;BME280;55012;47.562;18.414;2024-02-16T12:01:17;99752.06;;;10.27;100.00
68193;BME280;55012;47.562;18.414;2024-02-16T12:03:42;99747.56;;;10.31;100.00
68193;BME280;55012;47.562;18.414;2024-02-16T12:06:07;99729.78;;;10.30;100.00
68193;BME280;55012;47.562;18.414;2024-02-16T12:08:34;99718.63;;;10.32;100.00
68193;BME280;55012;47.562;18.414;2024-02-16T12:11:01;99718.75;;;10.35;100.00
68193;BME280;55012;47.562;18.414;2024-02-16T12:13:27;99716.19;;;10.39;100.00
68193;BME280;55012;47.562;18.414;2024-02-16T12:15:52;99717.13;;;10.43;100.00
68193;BME280;55012;47.562;18.414;2024-02-16T12:18:27;99714.19;;;10.48;100.00
68193;BME280;55012;47.562;18.414;2024-02-16T12:20:58;99718.59;;;10.53;100.00
68193;BME280;55012;47.562;18.414;2024-02-16T12:23:24;99711.28;;;10.53;100.00
68193;BME280;55012;47.562;18.414;2024-02-16T12:25:49;99708.25;;;10.55;100.00
68193;BME280;55012;47.562;18.414;2024-02-16T12:28:14;99706.78;;;10.57;100.00
68193;BME280;55012;47.562;18.414;2024-02-16T12:30:40;99696.75;;;10.58;100.00
68193;BME280;55012;47.562;18.414;2024-02-16T12:33:05;99700.72;;;10.60;100.00
68193;BME280;55012;47.562;18.414;2024-02-16T12:35:31;99708.59;;;10.65;100.00